Bristol, Illinois
Current Conditions -  °F | °C
As of 2:52 AM on Saturday 25 Oct 2014 (Local Time) from KARR Reporting Station
Clear Clear  
Wind Chill: 51°   Ceiling: Unl
Heat Index: 51°   Visibility: 7mi
Dew Point: 47°   Wind: 3mph
Humidity: 86%   Direction: 240°WSW
Pressure: 29.91"   Gusts: NA
Location:  41.69°N, 88.43°W
Report Text: KARR 250752Z AUTO 24003KT 7SM CLR 11/08 A2991 RMK AO2 SLP127 T01060083
Loading
Personal Weather Stations






























Interactive Weather Map
Tropical Storm Tracking
New forecast layout! Learn more

10-Day Weather Forecast

Advertisements
Track Severe Weather on mobile